createdAt,value
2022-10-18T00:00:05.524Z,12.5
2022-10-18T00:01:04.755Z,11.6
2022-10-18T00:02:04.858Z,11.5
2022-10-18T00:03:04.122Z,12.2
2022-10-18T00:04:04.022Z,11.6
2022-10-18T00:05:04.884Z,10.8
2022-10-18T00:06:04.773Z,11.3
2022-10-18T00:07:04.649Z,12.5
2022-10-18T00:08:04.252Z,11.9
2022-10-18T00:09:04.492Z,12.2
2022-10-18T00:10:04.942Z,10.6
2022-10-18T00:11:04.241Z,11.8
2022-10-18T00:12:04.002Z,11.2
2022-10-18T00:13:03.976Z,11.6
2022-10-18T00:14:04.741Z,10.6
2022-10-18T00:15:05.105Z,11.7
2022-10-18T00:16:06.462Z,11.2
2022-10-18T00:17:04.501Z,10.9
2022-10-18T00:18:04.350Z,11.3
2022-10-18T00:19:04.630Z,11.2
2022-10-18T00:20:05.094Z,11.1
2022-10-18T00:21:05.711Z,12.0
2022-10-18T00:22:04.230Z,10.7
2022-10-18T00:23:04.240Z,11.1
2022-10-18T00:24:04.751Z,11.7
2022-10-18T00:25:05.018Z,11.9
2022-10-18T00:26:06.043Z,10.9
2022-10-18T00:27:04.232Z,10.7
2022-10-18T00:28:04.259Z,12.0
2022-10-18T00:29:04.869Z,11.1
2022-10-18T00:30:04.703Z,10.6
2022-10-18T00:31:15.288Z,11.0
2022-10-18T00:32:04.734Z,11.5
2022-10-18T00:33:04.534Z,10.9
2022-10-18T00:34:05.540Z,11.1
2022-10-18T00:35:04.798Z,12.0
2022-10-18T00:36:04.373Z,10.7
2022-10-18T00:37:04.333Z,11.2
2022-10-18T00:38:04.508Z,10.7
2022-10-18T00:39:05.047Z,10.3
2022-10-18T00:40:04.939Z,11.2
2022-10-18T00:41:04.786Z,11.6
2022-10-18T00:42:04.760Z,8.7
2022-10-18T00:43:04.591Z,11.2
2022-10-18T00:44:08.945Z,10.7
2022-10-18T00:45:18.126Z,11.0
2022-10-18T00:46:04.365Z,11.3
2022-10-18T00:47:07.371Z,10.8
2022-10-18T00:48:04.196Z,10.4
2022-10-18T00:49:06.677Z,10.6
2022-10-18T00:50:05.393Z,11.0
2022-10-18T00:51:05.022Z,10.6
2022-10-18T00:52:12.311Z,11.1
2022-10-18T00:53:07.633Z,10.5
2022-10-18T00:54:04.291Z,10.1
2022-10-18T00:55:05.152Z,9.7
2022-10-18T00:56:04.588Z,10.5
2022-10-18T00:57:05.297Z,10.3
2022-10-18T00:58:04.779Z,11.4
2022-10-18T00:59:04.213Z,10.9
2022-10-18T01:00:04.880Z,9.9
2022-10-18T01:01:04.870Z,10.0
2022-10-18T01:02:05.684Z,10.8
2022-10-18T01:03:04.657Z,11.3
2022-10-18T01:04:04.604Z,10.7
2022-10-18T01:05:04.840Z,10.0
2022-10-18T01:06:06.570Z,9.5
2022-10-18T01:07:17.879Z,11.2
2022-10-18T01:08:26.822Z,10.6
2022-10-18T01:09:17.816Z,10.5
2022-10-18T01:10:09.163Z,10.7
2022-10-18T01:11:20.821Z,10.5
2022-10-18T01:12:22.299Z,11.2
2022-10-18T01:13:25.608Z,11.1
2022-10-18T01:14:09.304Z,10.0
2022-10-18T01:15:11.881Z,10.4
2022-10-18T01:16:08.934Z,10.8
2022-10-18T01:17:11.322Z,10.0
2022-10-18T01:18:24.324Z,9.9
2022-10-18T01:19:23.833Z,10.3
2022-10-18T01:20:11.829Z,10.2
2022-10-18T01:21:08.926Z,10.7
2022-10-18T01:22:08.364Z,11.8
2022-10-18T01:23:13.557Z,10.5
2022-10-18T01:24:09.206Z,10.2
2022-10-18T01:25:26.817Z,10.0
2022-10-18T01:26:21.756Z,9.2
2022-10-18T01:27:09.572Z,10.4
2022-10-18T01:28:12.336Z,9.9
2022-10-18T01:29:11.841Z,10.6
2022-10-18T01:30:17.862Z,9.7
2022-10-18T01:31:17.337Z,10.2
2022-10-18T01:32:08.960Z,9.6
2022-10-18T01:33:09.340Z,10.3
2022-10-18T01:34:07.056Z,10.7
2022-10-18T01:35:07.447Z,11.0
2022-10-18T01:36:17.878Z,9.9
2022-10-18T01:37:08.439Z,11.1
2022-10-18T01:38:06.897Z,10.9
2022-10-18T01:39:07.449Z,11.2
2022-10-18T01:40:05.040Z,10.2
2022-10-18T01:41:06.170Z,9.3
2022-10-18T01:42:06.661Z,10.6
2022-10-18T01:43:04.550Z,9.5
2022-10-18T01:44:06.316Z,10.7
2022-10-18T01:45:05.449Z,10.5
2022-10-18T01:46:04.415Z,9.8
2022-10-18T01:47:05.358Z,10.2
2022-10-18T01:48:05.335Z,9.9
2022-10-18T01:49:04.776Z,10.7
2022-10-18T01:50:05.372Z,9.5
2022-10-18T01:51:04.312Z,10.4
2022-10-18T01:52:04.495Z,9.5
2022-10-18T01:53:04.044Z,10.8
2022-10-18T01:54:04.170Z,10.0
2022-10-18T01:55:04.224Z,9.9
2022-10-18T01:56:12.371Z,10.4
2022-10-18T01:57:11.830Z,10.5
2022-10-18T01:58:20.084Z,8.9
2022-10-18T01:59:11.847Z,9.8
2022-10-18T02:00:15.337Z,9.8
2022-10-18T02:01:09.026Z,8.3
2022-10-18T02:02:26.337Z,10.5
2022-10-18T02:03:09.570Z,10.2
2022-10-18T02:04:11.890Z,9.1
2022-10-18T02:05:26.930Z,10.2
2022-10-18T02:06:07.176Z,10.3
2022-10-18T02:07:24.334Z,10.0
2022-10-18T02:08:22.469Z,9.4
2022-10-18T02:09:09.265Z,9.0
2022-10-18T02:10:25.129Z,9.4
2022-10-18T02:11:08.460Z,9.6
2022-10-18T02:12:05.355Z,9.4
2022-10-18T02:13:04.116Z,10.0
2022-10-18T02:14:08.485Z,9.4
2022-10-18T02:15:06.417Z,9.4
2022-10-18T02:16:06.702Z,10.6
2022-10-18T02:17:06.964Z,10.6
2022-10-18T02:18:07.337Z,9.6
2022-10-18T02:19:10.616Z,10.9
2022-10-18T02:20:05.592Z,10.5
2022-10-18T02:21:05.052Z,9.4
2022-10-18T02:22:05.837Z,10.1
2022-10-18T02:23:05.714Z,9.0
2022-10-18T02:24:05.462Z,10.8
2022-10-18T02:25:05.851Z,10.1
2022-10-18T02:26:05.171Z,10.4
2022-10-18T02:27:04.539Z,9.9
2022-10-18T02:28:05.109Z,10.8
2022-10-18T02:29:04.721Z,9.7
2022-10-18T02:30:04.344Z,10.4
2022-10-18T02:31:07.787Z,10.2
2022-10-18T02:32:09.312Z,9.6
2022-10-18T02:33:06.620Z,9.6
2022-10-18T02:34:11.853Z,9.3
2022-10-18T02:35:09.176Z,8.7
2022-10-18T02:36:08.479Z,9.5
2022-10-18T02:37:04.518Z,10.5
2022-10-18T02:38:06.166Z,9.2
2022-10-18T02:39:06.724Z,9.6
2022-10-18T02:40:05.623Z,9.5
2022-10-18T02:41:04.165Z,8.9
2022-10-18T02:42:05.120Z,9.2
2022-10-18T02:43:04.828Z,10.2
2022-10-18T02:44:04.295Z,9.7
2022-10-18T02:45:04.946Z,9.1
2022-10-18T02:46:04.626Z,10.5
2022-10-18T02:47:04.836Z,9.0
2022-10-18T02:48:04.077Z,9.8
2022-10-18T02:49:04.781Z,9.8
2022-10-18T02:50:04.959Z,10.2
2022-10-18T02:51:03.944Z,10.3
2022-10-18T02:52:04.552Z,9.4
2022-10-18T02:53:04.504Z,8.6
2022-10-18T02:54:04.591Z,9.8
2022-10-18T02:55:04.881Z,9.5
2022-10-18T02:56:04.599Z,9.0
2022-10-18T02:57:04.150Z,9.4
2022-10-18T02:58:04.398Z,8.9
2022-10-18T02:59:04.308Z,10.2
2022-10-18T03:00:04.601Z,8.8
2022-10-18T03:01:04.821Z,10.3
2022-10-18T03:02:04.453Z,9.4
2022-10-18T03:03:04.327Z,9.0
2022-10-18T03:04:04.638Z,8.7
2022-10-18T03:05:04.928Z,10.0
2022-10-18T03:06:04.184Z,8.3
2022-10-18T03:07:04.037Z,8.9
2022-10-18T03:08:04.686Z,9.8
2022-10-18T03:09:05.189Z,9.8
2022-10-18T03:10:04.650Z,8.9
2022-10-18T03:11:04.751Z,10.6
2022-10-18T03:12:05.002Z,9.6
2022-10-18T03:13:04.605Z,9.7
2022-10-18T03:14:04.479Z,7.8
2022-10-18T03:15:04.678Z,8.8
2022-10-18T03:16:04.252Z,9.3
2022-10-18T03:17:04.253Z,10.1
2022-10-18T03:18:04.243Z,10.1
2022-10-18T03:19:04.302Z,8.9
2022-10-18T03:20:04.448Z,9.9
2022-10-18T03:21:04.623Z,9.6
2022-10-18T03:22:04.635Z,9.5
2022-10-18T03:23:04.491Z,8.7
2022-10-18T03:24:04.755Z,10.0
2022-10-18T03:25:04.746Z,9.5
2022-10-18T03:26:04.498Z,8.5
2022-10-18T03:27:04.603Z,8.7
2022-10-18T03:28:04.417Z,9.3
2022-10-18T03:29:04.437Z,8.1
2022-10-18T03:30:04.830Z,9.6
2022-10-18T03:31:04.474Z,8.4
2022-10-18T03:32:04.258Z,9.0
2022-10-18T03:33:04.997Z,9.0
2022-10-18T03:34:04.643Z,8.2
2022-10-18T03:35:04.453Z,9.0
2022-10-18T03:36:04.916Z,8.9
2022-10-18T03:37:05.490Z,9.7
2022-10-18T03:38:04.812Z,9.6
2022-10-18T03:39:04.583Z,8.6
2022-10-18T03:40:04.862Z,9.4
2022-10-18T03:41:04.867Z,8.8
2022-10-18T03:42:03.909Z,8.4
2022-10-18T03:43:04.675Z,8.5
2022-10-18T03:44:04.498Z,8.8
2022-10-18T03:45:04.871Z,9.7
2022-10-18T03:46:04.179Z,8.8
2022-10-18T03:47:03.948Z,10.0
2022-10-18T03:48:04.938Z,8.5
2022-10-18T03:49:04.479Z,9.2
2022-10-18T03:50:04.597Z,8.7
2022-10-18T03:51:04.234Z,8.9
2022-10-18T03:52:03.949Z,8.7
2022-10-18T03:53:04.618Z,8.5
2022-10-18T03:54:04.369Z,8.5
2022-10-18T03:55:05.070Z,9.5
2022-10-18T03:56:04.685Z,9.5
2022-10-18T03:57:04.282Z,9.7
2022-10-18T03:58:05.418Z,9.2
2022-10-18T03:59:04.325Z,8.2
2022-10-18T04:00:04.616Z,7.9
2022-10-18T04:01:04.037Z,8.6
2022-10-18T04:02:04.388Z,9.2
2022-10-18T04:03:04.051Z,8.5
2022-10-18T04:04:03.976Z,9.1
2022-10-18T04:05:04.412Z,8.3
2022-10-18T04:06:04.798Z,9.1
2022-10-18T04:07:04.744Z,9.4
2022-10-18T04:08:04.516Z,9.2
2022-10-18T04:09:06.603Z,8.1
2022-10-18T04:10:04.324Z,9.2
2022-10-18T04:11:04.647Z,8.4
2022-10-18T04:12:04.737Z,8.2
2022-10-18T04:13:05.623Z,8.8
2022-10-18T04:14:04.703Z,8.3
2022-10-18T04:15:04.319Z,9.0
2022-10-18T04:16:04.841Z,7.8
2022-10-18T04:17:04.064Z,8.4
2022-10-18T04:18:04.330Z,8.7
2022-10-18T04:19:05.082Z,9.3
2022-10-18T04:20:04.362Z,9.2
2022-10-18T04:21:04.265Z,7.4
2022-10-18T04:22:04.003Z,9.0
2022-10-18T04:23:04.739Z,8.9
2022-10-18T04:24:04.956Z,7.9
2022-10-18T04:25:04.335Z,8.9
2022-10-18T04:26:04.250Z,8.2
2022-10-18T04:27:04.867Z,8.4
2022-10-18T04:28:04.722Z,9.2
2022-10-18T04:29:04.576Z,9.5
2022-10-18T04:30:04.967Z,8.3
2022-10-18T04:31:05.262Z,9.0
2022-10-18T04:32:04.456Z,8.8
2022-10-18T04:33:04.275Z,8.8
2022-10-18T04:34:04.048Z,8.7
2022-10-18T04:35:04.387Z,9.1
2022-10-18T04:36:04.651Z,9.4
2022-10-18T04:37:04.124Z,8.3
2022-10-18T04:38:04.023Z,7.6
2022-10-18T04:39:04.001Z,9.1
2022-10-18T04:40:05.358Z,7.9
2022-10-18T04:41:04.159Z,8.0
2022-10-18T04:42:03.886Z,7.7
2022-10-18T04:43:04.761Z,8.4
2022-10-18T04:44:04.269Z,7.7
2022-10-18T04:45:04.534Z,8.7
2022-10-18T04:46:04.665Z,8.4
2022-10-18T04:47:04.379Z,8.2
2022-10-18T04:48:04.293Z,8.0
2022-10-18T04:49:04.421Z,8.5
2022-10-18T04:50:04.629Z,7.7
2022-10-18T04:51:04.168Z,8.5
2022-10-18T04:52:04.378Z,8.3
2022-10-18T04:53:04.156Z,8.8
2022-10-18T04:54:04.407Z,8.2
2022-10-18T04:55:04.435Z,9.0
2022-10-18T04:56:04.694Z,9.1
2022-10-18T04:57:04.221Z,8.8
2022-10-18T04:58:04.465Z,8.3
2022-10-18T04:59:04.681Z,7.9
2022-10-18T05:00:05.160Z,8.2
2022-10-18T05:01:05.064Z,8.9
2022-10-18T05:03:04.405Z,8.7
2022-10-18T05:04:04.237Z,7.0
2022-10-18T05:05:04.577Z,7.6
2022-10-18T05:06:04.873Z,8.6
2022-10-18T05:07:04.491Z,8.0
2022-10-18T05:08:04.326Z,8.6
2022-10-18T05:09:04.597Z,7.8
2022-10-18T05:10:04.282Z,7.8
2022-10-18T05:11:04.838Z,8.2
2022-10-18T05:12:04.128Z,8.9
2022-10-18T05:13:04.241Z,7.2
2022-10-18T05:14:04.487Z,8.4
2022-10-18T05:15:04.714Z,7.5
2022-10-18T05:16:04.578Z,8.3
2022-10-18T05:17:04.392Z,8.6
2022-10-18T05:18:04.132Z,7.9
2022-10-18T05:19:04.476Z,8.3
2022-10-18T05:20:05.027Z,8.5
2022-10-18T05:21:04.571Z,8.6
2022-10-18T05:22:04.401Z,8.3
2022-10-18T05:23:04.119Z,7.9
2022-10-18T05:24:04.134Z,8.2
2022-10-18T05:25:05.024Z,8.8
2022-10-18T05:26:05.521Z,7.9
2022-10-18T05:27:04.332Z,8.6
2022-10-18T05:28:10.905Z,8.4
2022-10-18T05:29:04.486Z,8.2
2022-10-18T05:30:05.694Z,8.7
2022-10-18T05:31:05.346Z,8.2
2022-10-18T05:32:04.261Z,7.9
2022-10-18T05:33:04.125Z,7.2
2022-10-18T05:34:03.907Z,8.7
2022-10-18T05:35:04.884Z,7.9
2022-10-18T05:36:04.630Z,7.7
2022-10-18T05:37:04.205Z,7.6
2022-10-18T05:38:04.710Z,8.0
2022-10-18T05:39:05.063Z,7.8
2022-10-18T05:40:04.516Z,8.8
2022-10-18T05:41:04.062Z,8.4
2022-10-18T05:42:04.785Z,7.3
2022-10-18T05:43:04.464Z,8.4
2022-10-18T05:44:04.967Z,8.0
2022-10-18T05:45:04.853Z,7.6
2022-10-18T05:46:04.446Z,7.5
2022-10-18T05:47:04.595Z,7.7
2022-10-18T05:48:04.662Z,8.5
2022-10-18T05:49:04.266Z,8.0
2022-10-18T05:50:04.339Z,8.4
2022-10-18T05:51:04.409Z,7.5
2022-10-18T05:52:04.296Z,7.0
2022-10-18T05:53:12.296Z,9.4
2022-10-18T05:54:04.747Z,7.7
2022-10-18T05:55:04.962Z,7.8
2022-10-18T05:56:05.634Z,9.9
2022-10-18T05:57:04.505Z,10.4
2022-10-18T05:58:04.740Z,9.2
2022-10-18T05:59:04.561Z,10.6
2022-10-18T06:00:04.980Z,9.3
2022-10-18T06:01:04.645Z,9.7
2022-10-18T06:02:03.974Z,11.0
2022-10-18T06:03:04.738Z,10.0
2022-10-18T06:04:04.684Z,11.8
2022-10-18T06:05:04.860Z,10.9
2022-10-18T06:06:05.761Z,12.0
2022-10-18T06:07:10.669Z,11.9
2022-10-18T06:08:06.583Z,10.8
2022-10-18T06:09:05.440Z,13.3
2022-10-18T06:10:05.079Z,13.6
2022-10-18T06:11:09.618Z,14.3
2022-10-18T06:12:04.727Z,15.6
2022-10-18T06:13:04.022Z,13.7
2022-10-18T06:14:06.443Z,15.9
2022-10-18T06:15:04.397Z,14.8
2022-10-18T06:16:04.188Z,18.9
2022-10-18T06:17:04.614Z,14.8
2022-10-18T06:18:04.366Z,15.8
2022-10-18T06:19:04.844Z,15.6
2022-10-18T06:20:04.957Z,15.6
2022-10-18T06:21:04.194Z,14.9
2022-10-18T06:22:04.125Z,15.7
2022-10-18T06:23:04.063Z,15.9
2022-10-18T06:24:04.824Z,14.9
2022-10-18T06:25:04.228Z,16.3
2022-10-18T06:26:05.566Z,16.3
2022-10-18T06:28:07.752Z,16.3
2022-10-18T06:29:04.716Z,15.3
2022-10-18T06:30:04.759Z,15.9
2022-10-18T06:31:05.029Z,17.3
2022-10-18T06:32:05.094Z,16.5
2022-10-18T06:33:04.752Z,16.5
2022-10-18T06:34:04.069Z,14.8
2022-10-18T06:35:04.201Z,17.2
2022-10-18T06:36:05.572Z,16.5
2022-10-18T06:37:04.430Z,17.4
2022-10-18T06:38:04.277Z,16.6
2022-10-18T06:39:04.384Z,17.1
2022-10-18T06:40:05.064Z,15.6
2022-10-18T06:41:04.871Z,16.5
2022-10-18T06:42:04.298Z,16.9
2022-10-18T06:43:19.517Z,16.6
2022-10-18T06:44:04.457Z,16.4
2022-10-18T06:45:04.724Z,15.7
2022-10-18T06:46:05.431Z,15.8
2022-10-18T06:47:06.296Z,15.5
2022-10-18T06:48:04.630Z,15.4
2022-10-18T06:49:03.852Z,15.8
2022-10-18T06:50:04.464Z,14.7
2022-10-18T06:51:05.165Z,16.2
2022-10-18T06:52:04.710Z,16.0
2022-10-18T06:53:04.059Z,17.2
2022-10-18T06:54:17.640Z,17.0
2022-10-18T06:55:09.002Z,16.0
2022-10-18T06:56:08.211Z,15.3
2022-10-18T06:57:04.649Z,15.0
2022-10-18T06:58:04.476Z,15.2
2022-10-18T06:59:04.188Z,16.0
2022-10-18T07:00:04.897Z,15.5
2022-10-18T07:01:07.183Z,15.2
2022-10-18T07:02:04.450Z,15.4
2022-10-18T07:03:04.213Z,16.0
2022-10-18T07:04:03.892Z,15.5
2022-10-18T07:05:04.862Z,15.2
2022-10-18T07:06:04.805Z,14.7
2022-10-18T07:07:04.664Z,14.2
2022-10-18T07:08:04.127Z,15.1
2022-10-18T07:09:04.761Z,15.0
2022-10-18T07:10:05.199Z,15.7
2022-10-18T07:11:05.598Z,16.2
2022-10-18T07:12:04.823Z,15.4
2022-10-18T07:13:27.270Z,15.8
2022-10-18T07:14:04.239Z,15.7
2022-10-18T07:15:09.094Z,14.3
2022-10-18T07:16:08.098Z,15.1
2022-10-18T07:17:04.061Z,14.6
2022-10-18T07:18:03.987Z,15.5
2022-10-18T07:19:04.613Z,14.9
2022-10-18T07:20:04.146Z,14.8
2022-10-18T07:21:05.538Z,14.6
2022-10-18T07:22:04.550Z,13.6
2022-10-18T07:23:04.795Z,14.6
2022-10-18T07:24:04.255Z,14.9
2022-10-18T07:25:07.118Z,13.9
2022-10-18T07:26:09.049Z,15.8
2022-10-18T07:27:04.687Z,14.4
2022-10-18T07:28:03.928Z,13.4
2022-10-18T07:29:06.626Z,14.5
2022-10-18T07:30:07.940Z,13.2
2022-10-18T07:31:06.159Z,14.0
2022-10-18T07:32:04.590Z,14.2
2022-10-18T07:33:04.302Z,14.3
2022-10-18T07:34:05.025Z,13.0
2022-10-18T07:35:04.408Z,13.5
2022-10-18T07:36:04.967Z,13.6
2022-10-18T07:37:04.040Z,14.0
2022-10-18T07:38:04.842Z,14.5
2022-10-18T07:39:04.215Z,13.1
2022-10-18T07:40:04.648Z,14.0
2022-10-18T07:41:05.179Z,14.1
2022-10-18T07:42:04.886Z,12.9
2022-10-18T07:43:05.063Z,13.3
2022-10-18T07:44:04.736Z,13.2
2022-10-18T07:45:04.563Z,13.3
2022-10-18T07:46:04.695Z,13.7
2022-10-18T07:47:04.373Z,13.7
2022-10-18T07:48:04.637Z,12.4
2022-10-18T07:49:04.432Z,13.4
2022-10-18T07:50:05.134Z,13.5
2022-10-18T07:51:04.631Z,13.2
2022-10-18T07:52:04.347Z,13.4
2022-10-18T07:53:04.571Z,14.3
2022-10-18T07:54:04.401Z,13.0
2022-10-18T07:55:04.834Z,12.3
2022-10-18T07:56:08.746Z,13.2
2022-10-18T07:57:04.713Z,12.6
2022-10-18T07:58:04.102Z,13.4
2022-10-18T07:59:04.386Z,13.0
2022-10-18T08:00:04.615Z,13.0
2022-10-18T08:01:05.342Z,12.8
2022-10-18T08:02:04.732Z,13.1
2022-10-18T08:03:04.551Z,12.9
2022-10-18T08:04:07.507Z,13.7
2022-10-18T08:05:04.681Z,12.6
2022-10-18T08:06:05.327Z,13.6
2022-10-18T08:07:04.222Z,12.6
2022-10-18T08:08:07.891Z,13.1
2022-10-18T08:09:04.628Z,13.6
2022-10-18T08:10:04.723Z,12.7
2022-10-18T08:11:06.073Z,12.1
2022-10-18T08:12:04.208Z,12.3
2022-10-18T08:13:04.406Z,12.9
2022-10-18T08:14:04.987Z,13.6
2022-10-18T08:15:04.616Z,12.0
2022-10-18T08:16:05.383Z,12.5
2022-10-18T08:17:04.021Z,12.2
2022-10-18T08:18:04.685Z,12.5
2022-10-18T08:19:04.509Z,12.1
2022-10-18T08:20:12.641Z,11.3
2022-10-18T08:21:05.218Z,12.4
2022-10-18T08:22:04.533Z,11.6
2022-10-18T08:23:04.654Z,11.7
2022-10-18T08:24:04.731Z,11.4
2022-10-18T08:25:05.149Z,12.7
2022-10-18T08:26:05.785Z,12.6
2022-10-18T08:27:04.339Z,11.3
2022-10-18T08:28:04.361Z,11.6
2022-10-18T08:29:20.936Z,11.7
2022-10-18T08:30:04.462Z,12.3
2022-10-18T08:31:05.262Z,12.7
2022-10-18T08:32:04.359Z,12.2
2022-10-18T08:33:04.556Z,12.2
2022-10-18T08:34:04.371Z,11.9
2022-10-18T08:35:06.906Z,12.7
2022-10-18T08:36:05.927Z,12.1
2022-10-18T08:37:04.301Z,11.4
2022-10-18T08:38:04.546Z,11.3
2022-10-18T08:39:04.345Z,12.1
2022-10-18T08:40:04.602Z,10.9
2022-10-18T08:41:26.957Z,12.2
2022-10-18T08:42:26.889Z,12.2
2022-10-18T08:43:21.907Z,12.1
2022-10-18T08:44:07.459Z,12.6
2022-10-18T08:45:12.523Z,12.2
2022-10-18T08:46:04.829Z,12.1
2022-10-18T08:47:05.747Z,12.6
2022-10-18T08:48:05.402Z,12.5
2022-10-18T08:49:05.577Z,12.3
2022-10-18T08:50:12.049Z,11.1
2022-10-18T08:51:09.550Z,11.7
2022-10-18T08:52:09.371Z,11.4
2022-10-18T08:53:09.136Z,11.1
2022-10-18T08:54:06.577Z,12.0
2022-10-18T08:55:09.270Z,12.4
2022-10-18T08:56:05.597Z,12.8
2022-10-18T08:57:09.350Z,12.4
2022-10-18T08:58:20.548Z,11.9
2022-10-18T08:59:08.507Z,11.1
2022-10-18T09:00:20.420Z,11.1
2022-10-18T09:01:09.252Z,11.6
2022-10-18T09:02:24.397Z,12.2
2022-10-18T09:03:24.479Z,11.8
2022-10-18T09:04:11.928Z,11.4
2022-10-18T09:05:14.979Z,11.4
2022-10-18T09:06:16.719Z,12.4
2022-10-18T09:07:08.823Z,11.4
2022-10-18T09:08:22.810Z,11.4
2022-10-18T09:09:22.330Z,11.2
2022-10-18T09:10:22.315Z,11.0
2022-10-18T09:11:20.992Z,12.5
2022-10-18T09:12:17.481Z,12.2
2022-10-18T09:13:11.879Z,11.5
2022-10-18T09:14:11.407Z,11.9
2022-10-18T09:15:15.389Z,11.6
2022-10-18T09:16:07.029Z,10.7
2022-10-18T09:17:24.454Z,12.1
2022-10-18T09:18:08.960Z,11.1
2022-10-18T09:19:11.381Z,11.1
2022-10-18T09:20:21.305Z,11.7
2022-10-18T09:21:11.377Z,10.8
2022-10-18T09:22:11.889Z,11.5
2022-10-18T09:23:20.649Z,10.7
2022-10-18T09:24:08.124Z,11.0
2022-10-18T09:25:22.329Z,11.7
2022-10-18T09:26:11.422Z,10.7
2022-10-18T09:27:09.049Z,11.1
2022-10-18T09:28:08.986Z,12.3
2022-10-18T09:29:08.834Z,11.1
2022-10-18T09:30:23.873Z,10.8
2022-10-18T09:31:08.880Z,11.7
2022-10-18T09:32:18.428Z,10.5
2022-10-18T09:33:22.952Z,11.9
2022-10-18T09:34:08.211Z,11.2
2022-10-18T09:35:15.979Z,11.8
2022-10-18T09:36:05.534Z,11.9
2022-10-18T09:37:08.621Z,11.1
2022-10-18T09:38:08.799Z,11.1
2022-10-18T09:39:09.122Z,12.2
2022-10-18T09:40:19.198Z,11.0
2022-10-18T09:41:07.776Z,11.0
2022-10-18T09:42:09.395Z,10.6
2022-10-18T09:43:06.308Z,11.6
2022-10-18T09:44:22.338Z,10.8
2022-10-18T09:45:17.465Z,10.7
2022-10-18T09:46:05.320Z,10.7
2022-10-18T09:47:12.277Z,10.8
2022-10-18T09:48:23.922Z,11.6
2022-10-18T09:49:06.991Z,10.7
2022-10-18T09:50:22.329Z,11.2
2022-10-18T09:51:08.319Z,10.0
2022-10-18T09:52:07.088Z,10.0
2022-10-18T09:53:09.700Z,12.0
2022-10-18T09:54:08.955Z,10.8
2022-10-18T09:55:21.319Z,10.3
2022-10-18T09:56:05.426Z,11.5
2022-10-18T09:57:09.173Z,10.5
2022-10-18T09:58:05.894Z,11.0
2022-10-18T09:59:04.046Z,11.0
2022-10-18T10:00:06.018Z,11.5
2022-10-18T10:01:04.873Z,10.6
2022-10-18T10:02:04.765Z,11.9
2022-10-18T10:03:08.965Z,10.8
2022-10-18T10:04:04.391Z,10.5
2022-10-18T10:05:05.515Z,11.0
2022-10-18T10:06:17.904Z,10.2
2022-10-18T10:07:06.847Z,10.8
2022-10-18T10:08:04.463Z,10.9
2022-10-18T10:09:06.380Z,10.4
2022-10-18T10:10:12.436Z,10.5
2022-10-18T10:11:04.380Z,11.7
2022-10-18T10:12:04.280Z,11.1
2022-10-18T10:13:08.927Z,11.0
2022-10-18T10:14:12.457Z,9.9
2022-10-18T10:15:08.441Z,11.2
2022-10-18T10:16:04.704Z,11.5
2022-10-18T10:17:05.381Z,10.7
2022-10-18T10:18:06.622Z,10.4
2022-10-18T10:19:04.333Z,10.6
2022-10-18T10:20:20.610Z,11.1
2022-10-18T10:21:06.041Z,11.1
2022-10-18T10:22:09.011Z,11.1
2022-10-18T10:23:07.861Z,11.1
2022-10-18T10:24:04.780Z,11.7
2022-10-18T10:25:04.972Z,10.9
2022-10-18T10:26:06.315Z,10.1
2022-10-18T10:27:05.929Z,12.0
2022-10-18T10:28:15.452Z,11.2
2022-10-18T10:29:17.372Z,11.1
2022-10-18T10:30:09.403Z,10.1
2022-10-18T10:31:18.263Z,10.2
2022-10-18T10:32:04.382Z,10.6
2022-10-18T10:33:05.167Z,10.3
2022-10-18T10:34:05.127Z,11.1
2022-10-18T10:35:13.577Z,11.7
2022-10-18T10:36:05.704Z,12.3
2022-10-18T10:37:09.119Z,15.2
2022-10-18T10:38:04.755Z,14.7
2022-10-18T10:39:05.735Z,14.3
2022-10-18T10:40:19.868Z,11.2
2022-10-18T10:41:04.497Z,10.5
2022-10-18T10:42:05.879Z,11.8
2022-10-18T10:43:18.191Z,12.0
2022-10-18T10:44:09.571Z,12.4
2022-10-18T10:45:04.332Z,11.4
2022-10-18T10:46:08.740Z,13.8
2022-10-18T10:47:04.664Z,12.7
2022-10-18T10:48:09.439Z,11.5
2022-10-18T10:49:34.985Z,12.3
2022-10-18T10:50:10.906Z,11.2
2022-10-18T10:51:09.061Z,11.7
2022-10-18T10:52:09.236Z,11.2
2022-10-18T10:53:04.285Z,11.6
2022-10-18T10:54:05.272Z,10.5
2022-10-18T10:55:23.236Z,11.4
2022-10-18T10:56:04.984Z,11.2
2022-10-18T10:57:14.408Z,11.7
2022-10-18T10:58:04.785Z,11.6
2022-10-18T10:59:09.105Z,10.8
2022-10-18T11:00:04.598Z,10.6
2022-10-18T11:01:20.839Z,11.0
2022-10-18T11:02:19.896Z,13.2
2022-10-18T11:03:27.380Z,12.8
2022-10-18T11:04:11.976Z,11.7
2022-10-18T11:05:20.925Z,11.0
2022-10-18T11:06:04.023Z,11.0
2022-10-18T11:07:15.448Z,10.7
2022-10-18T11:08:04.748Z,10.3
2022-10-18T11:09:08.471Z,10.3
2022-10-18T11:10:14.795Z,11.7
2022-10-18T11:11:09.017Z,11.1
2022-10-18T11:12:09.297Z,10.9
2022-10-18T11:13:17.904Z,11.2
2022-10-18T11:14:25.204Z,10.9
2022-10-18T11:15:12.484Z,12.4
2022-10-18T11:16:09.325Z,11.0
2022-10-18T11:17:12.417Z,10.8
2022-10-18T11:18:09.309Z,12.2
2022-10-18T11:19:09.560Z,11.6
2022-10-18T11:20:11.979Z,11.8
2022-10-18T11:21:09.227Z,10.3
2022-10-18T11:22:05.093Z,12.6
2022-10-18T11:23:10.914Z,11.2
2022-10-18T11:24:04.646Z,10.1
2022-10-18T11:25:04.425Z,10.4
2022-10-18T11:26:15.424Z,10.0
2022-10-18T11:27:09.039Z,9.5
2022-10-18T11:28:11.916Z,10.6
2022-10-18T11:29:09.470Z,10.2
2022-10-18T11:30:22.370Z,10.0
2022-10-18T11:31:17.905Z,11.1
2022-10-18T11:32:11.542Z,9.9
2022-10-18T11:33:33.676Z,11.3
2022-10-18T11:34:11.491Z,10.8
2022-10-18T11:35:12.515Z,10.6
2022-10-18T11:37:27.104Z,10.4
2022-10-18T11:38:09.567Z,10.2
2022-10-18T11:39:23.930Z,10.4
2022-10-18T11:40:22.340Z,10.7
2022-10-18T11:41:09.010Z,9.7
2022-10-18T11:42:20.251Z,10.0
2022-10-18T11:43:21.863Z,11.0
2022-10-18T11:44:08.864Z,10.8
2022-10-18T11:45:12.416Z,11.0
2022-10-18T11:46:13.495Z,11.2
2022-10-18T11:47:11.967Z,11.0
2022-10-18T11:48:17.919Z,11.6
2022-10-18T11:49:21.843Z,10.8
2022-10-18T11:50:07.812Z,9.8
2022-10-18T11:51:08.880Z,11.0
2022-10-18T11:52:17.977Z,10.9
2022-10-18T11:53:17.918Z,9.9
2022-10-18T11:54:09.204Z,10.0
2022-10-18T11:55:20.929Z,10.2
2022-10-18T11:56:14.439Z,9.7
2022-10-18T11:57:12.417Z,10.1
2022-10-18T11:58:20.426Z,11.3
2022-10-18T11:59:27.417Z,10.3
2022-10-18T12:00:12.024Z,9.4
2022-10-18T12:01:12.408Z,9.4
2022-10-18T12:02:15.008Z,10.1
2022-10-18T12:03:25.487Z,10.7
2022-10-18T12:04:09.023Z,10.4
2022-10-18T12:05:22.730Z,10.4
2022-10-18T12:06:09.494Z,9.5
2022-10-18T12:07:05.664Z,10.0
2022-10-18T12:08:11.988Z,10.4
2022-10-18T12:09:14.937Z,9.9
2022-10-18T12:10:06.010Z,9.7
2022-10-18T12:11:11.737Z,10.5
2022-10-18T12:12:10.153Z,9.0
2022-10-18T12:13:06.060Z,10.1
2022-10-18T12:14:09.360Z,9.1
2022-10-18T12:15:16.941Z,10.0
2022-10-18T12:16:05.769Z,9.0
2022-10-18T12:17:39.639Z,10.2
2022-10-18T12:18:13.799Z,9.4
2022-10-18T12:19:06.229Z,9.7
2022-10-18T12:20:09.063Z,11.0
2022-10-18T12:21:05.437Z,9.8
2022-10-18T12:22:17.502Z,9.8
2022-10-18T12:23:06.337Z,9.6
2022-10-18T12:24:06.566Z,10.3
2022-10-18T12:25:09.355Z,10.0
2022-10-18T12:26:05.676Z,10.0
2022-10-18T12:27:04.589Z,8.9
2022-10-18T12:28:22.367Z,9.1
2022-10-18T12:29:23.611Z,9.7
2022-10-18T12:30:09.562Z,10.5
2022-10-18T12:31:11.446Z,9.4
2022-10-18T12:32:09.437Z,9.7
2022-10-18T12:33:27.269Z,9.9
2022-10-18T12:34:23.976Z,9.1
2022-10-18T12:35:08.295Z,9.0
2022-10-18T12:36:22.921Z,9.1
2022-10-18T12:37:14.925Z,10.4
2022-10-18T12:38:11.492Z,9.3
2022-10-18T12:39:08.826Z,9.2
2022-10-18T12:40:21.627Z,10.0
2022-10-18T12:41:04.804Z,8.6
2022-10-18T12:42:04.144Z,9.1
2022-10-18T12:43:08.284Z,9.5
2022-10-18T12:44:11.950Z,10.1
2022-10-18T12:45:17.599Z,10.0
2022-10-18T12:46:10.742Z,9.0
2022-10-18T12:47:04.410Z,10.3
2022-10-18T12:48:05.354Z,10.0
2022-10-18T12:49:04.381Z,9.5
2022-10-18T12:50:05.838Z,10.3
2022-10-18T12:51:13.973Z,8.7
2022-10-18T12:52:05.870Z,9.1
2022-10-18T12:53:09.511Z,8.9
2022-10-18T12:54:11.001Z,8.8
2022-10-18T12:55:16.910Z,12.0
2022-10-18T12:56:25.149Z,17.6
2022-10-18T12:57:05.421Z,16.5
2022-10-18T12:58:09.566Z,15.7
2022-10-18T12:59:17.951Z,15.9
2022-10-18T13:00:04.574Z,16.7
2022-10-18T13:01:05.350Z,13.4
2022-10-18T13:02:09.547Z,14.0
2022-10-18T13:03:14.449Z,16.7
2022-10-18T13:04:08.952Z,16.6
2022-10-18T13:05:21.104Z,19.3
2022-10-18T13:06:06.725Z,16.1
2022-10-18T13:07:11.449Z,17.0
2022-10-18T13:08:22.389Z,19.8
2022-10-18T13:09:17.715Z,21.4
2022-10-18T13:10:11.959Z,20.4
2022-10-18T13:11:12.005Z,21.1
2022-10-18T13:12:15.478Z,20.4
2022-10-18T13:13:38.166Z,20.4
2022-10-18T13:14:09.578Z,21.7
2022-10-18T13:15:24.754Z,21.5
2022-10-18T13:16:08.841Z,21.1
2022-10-18T13:17:26.957Z,21.1
2022-10-18T13:18:21.459Z,20.6
2022-10-18T13:19:14.948Z,21.8
2022-10-18T13:20:25.970Z,21.2
2022-10-18T13:21:12.022Z,22.1
2022-10-18T13:22:23.450Z,22.2
2022-10-18T13:23:09.720Z,22.0
2022-10-18T13:24:21.447Z,22.2
2022-10-18T13:25:22.417Z,21.3
2022-10-18T13:26:21.493Z,21.4
2022-10-18T13:27:34.909Z,22.7
2022-10-18T13:28:21.889Z,22.7
2022-10-18T13:29:22.928Z,21.9
2022-10-18T13:30:09.361Z,22.9